createdAt,value
2023-02-16T00:01:46.340Z,70.88
2023-02-16T00:04:19.912Z,72.13
2023-02-16T00:06:48.388Z,65.68
2023-02-16T00:09:17.292Z,58.30
2023-02-16T00:12:04.747Z,66.50
2023-02-16T00:14:35.996Z,65.50
2023-02-16T00:17:07.183Z,65.25
2023-02-16T00:19:37.489Z,60.08
2023-02-16T00:22:06.808Z,61.97
2023-02-16T00:24:35.078Z,64.50
2023-02-16T00:27:03.511Z,60.97
2023-02-16T00:29:35.014Z,52.63
2023-02-16T00:32:06.973Z,60.78
2023-02-16T00:34:38.297Z,57.25
2023-02-16T00:37:08.657Z,56.40
2023-02-16T00:39:38.288Z,62.78
2023-02-16T00:42:13.659Z,61.00
2023-02-16T00:44:44.235Z,63.45
2023-02-16T00:47:20.106Z,61.55
2023-02-16T00:49:49.085Z,61.38
2023-02-16T00:52:32.648Z,55.33
2023-02-16T00:55:02.352Z,61.03
2023-02-16T00:57:35.388Z,63.20
2023-02-16T01:00:08.333Z,58.53
2023-02-16T01:02:38.022Z,58.05
2023-02-16T01:05:06.947Z,57.72
2023-02-16T01:07:52.875Z,61.28
2023-02-16T01:10:38.710Z,51.63
2023-02-16T01:13:08.348Z,57.40
2023-02-16T01:15:37.646Z,59.03
2023-02-16T01:18:07.768Z,58.00
2023-02-16T01:20:37.383Z,60.05
2023-02-16T01:23:05.707Z,52.92
2023-02-16T01:25:33.930Z,64.32
2023-02-16T01:28:02.188Z,58.53
2023-02-16T01:30:30.901Z,61.45
2023-02-16T01:32:59.244Z,58.20
2023-02-16T01:35:34.491Z,60.95
2023-02-16T01:38:02.996Z,62.20
2023-02-16T01:40:41.822Z,59.47
2023-02-16T01:43:20.110Z,56.35
2023-02-16T01:45:55.679Z,60.42
2023-02-16T01:48:27.633Z,56.38
2023-02-16T01:51:03.291Z,59.63
2023-02-16T01:53:35.572Z,58.08
2023-02-16T01:56:08.100Z,54.90
2023-02-16T01:58:42.460Z,53.75
2023-02-16T02:01:37.559Z,59.72
2023-02-16T02:04:30.808Z,57.72
2023-02-16T02:07:00.377Z,55.85
2023-02-16T02:09:36.566Z,50.60
2023-02-16T02:12:11.790Z,53.13
2023-02-16T02:14:41.523Z,56.05
2023-02-16T02:17:13.623Z,53.38
2023-02-16T02:19:49.571Z,48.72
2023-02-16T02:23:04.647Z,59.53
2023-02-16T02:26:09.523Z,52.15
2023-02-16T02:28:48.780Z,54.28
2023-02-16T02:31:28.983Z,55.75
2023-02-16T02:34:12.553Z,62.72
2023-02-16T02:36:50.818Z,58.50
2023-02-16T02:39:34.622Z,57.78
2023-02-16T02:42:08.938Z,65.90
2023-02-16T02:44:50.399Z,64.32
2023-02-16T02:47:19.299Z,65.10
2023-02-16T02:49:51.814Z,64.80
2023-02-16T02:52:20.432Z,60.17
2023-02-16T02:55:03.971Z,57.08
2023-02-16T02:57:55.726Z,69.07
2023-02-16T03:00:44.100Z,71.35
2023-02-16T03:03:18.594Z,60.70
2023-02-16T03:05:50.368Z,66.80
2023-02-16T03:08:22.402Z,64.05
2023-02-16T03:11:11.150Z,63.97
2023-02-16T03:13:44.282Z,67.47
2023-02-16T03:16:21.149Z,71.50
2023-02-16T03:19:07.513Z,64.05
2023-02-16T03:21:54.481Z,68.00
2023-02-16T03:24:45.362Z,71.25
2023-02-16T03:27:32.701Z,65.57
2023-02-16T03:30:02.615Z,60.97
2023-02-16T03:32:32.591Z,61.80
2023-02-16T03:35:00.931Z,65.53
2023-02-16T03:37:29.246Z,63.25
2023-02-16T03:40:20.465Z,60.35
2023-02-16T03:42:52.057Z,63.15
2023-02-16T03:45:21.478Z,62.42
2023-02-16T03:47:51.482Z,72.38
2023-02-16T03:50:19.685Z,74.57
2023-02-16T03:52:48.336Z,67.18
2023-02-16T03:55:16.602Z,77.95
2023-02-16T03:57:44.765Z,80.68
2023-02-16T04:00:14.061Z,74.97
2023-02-16T04:02:42.255Z,65.85
2023-02-16T04:05:11.910Z,81.32
2023-02-16T04:07:40.127Z,72.15
2023-02-16T04:10:08.702Z,67.15
2023-02-16T04:12:38.650Z,67.53
2023-02-16T04:15:09.960Z,77.57
2023-02-16T04:17:38.451Z,72.30
2023-02-16T04:20:09.611Z,69.00
2023-02-16T04:22:39.210Z,73.25
2023-02-16T04:25:08.608Z,79.95
2023-02-16T04:27:37.958Z,80.30
2023-02-16T04:30:07.640Z,80.40
2023-02-16T04:32:35.893Z,82.60
2023-02-16T04:35:04.592Z,90.57
2023-02-16T04:37:32.851Z,82.35
2023-02-16T04:40:02.606Z,102.72
2023-02-16T04:42:30.753Z,81.93
2023-02-16T04:44:58.916Z,89.05
2023-02-16T04:47:27.260Z,91.88
2023-02-16T04:49:55.944Z,76.85
2023-02-16T04:52:24.164Z,67.55
2023-02-16T04:54:52.528Z,79.18
2023-02-16T04:57:24.294Z,85.85
2023-02-16T04:59:52.558Z,86.47
2023-02-16T05:02:20.837Z,75.88
2023-02-16T05:04:49.190Z,60.80
2023-02-16T05:07:17.576Z,66.32
2023-02-16T05:09:45.844Z,75.93
2023-02-16T05:12:31.741Z,72.43
2023-02-16T05:15:01.562Z,67.35
2023-02-16T05:17:30.038Z,79.28
2023-02-16T05:20:00.399Z,76.75
2023-02-16T05:22:32.477Z,74.05
2023-02-16T05:25:01.020Z,66.07
2023-02-16T05:27:31.598Z,75.07
2023-02-16T05:30:01.307Z,68.95
2023-02-16T05:32:29.612Z,75.60
2023-02-16T05:34:57.844Z,65.72
2023-02-16T05:37:25.981Z,76.63
2023-02-16T05:39:54.263Z,61.90
2023-02-16T05:42:22.439Z,74.05
2023-02-16T05:44:50.800Z,59.70
2023-02-16T05:47:20.415Z,73.88
2023-02-16T05:49:48.739Z,75.88
2023-02-16T05:52:16.882Z,69.95
2023-02-16T05:54:45.092Z,73.00
2023-02-16T05:57:13.327Z,61.78
2023-02-16T05:59:41.605Z,62.15
2023-02-16T06:02:10.754Z,77.43
2023-02-16T06:04:40.436Z,79.25
2023-02-16T06:07:08.640Z,74.93
2023-02-16T06:09:36.907Z,70.93
2023-02-16T06:12:05.987Z,83.40
2023-02-16T06:14:34.290Z,65.60
2023-02-16T06:17:02.553Z,71.22
2023-02-16T06:19:30.775Z,68.25
2023-02-16T06:22:00.339Z,69.13
2023-02-16T06:24:28.896Z,67.15
2023-02-16T06:27:00.302Z,69.53
2023-02-16T06:29:28.605Z,85.97
2023-02-16T06:31:56.892Z,90.60
2023-02-16T06:34:25.256Z,93.53
2023-02-16T06:36:53.735Z,86.35
2023-02-16T06:39:23.373Z,103.78
2023-02-16T06:41:51.545Z,90.53
2023-02-16T06:44:20.107Z,83.85
2023-02-16T06:46:49.365Z,86.05
2023-02-16T06:49:19.927Z,90.03
2023-02-16T06:51:48.974Z,88.53
2023-02-16T06:54:18.236Z,83.75
2023-02-16T06:56:47.804Z,86.65
2023-02-16T06:59:16.283Z,84.97
2023-02-16T07:01:45.449Z,86.22
2023-02-16T07:04:13.846Z,96.55
2023-02-16T07:06:42.321Z,87.70
2023-02-16T07:09:12.428Z,86.93
2023-02-16T07:11:41.118Z,76.95
2023-02-16T07:14:11.019Z,82.57
2023-02-16T07:16:39.452Z,76.32
2023-02-16T07:19:07.788Z,83.40
2023-02-16T07:21:36.474Z,79.53
2023-02-16T07:24:05.098Z,86.38
2023-02-16T07:26:33.386Z,71.50
2023-02-16T07:29:01.547Z,75.70
2023-02-16T07:31:31.314Z,84.60
2023-02-16T07:33:59.715Z,72.45
2023-02-16T07:36:27.958Z,75.72
2023-02-16T07:38:56.128Z,79.50
2023-02-16T07:41:24.327Z,86.13
2023-02-16T07:43:52.665Z,101.72
2023-02-16T07:46:20.826Z,95.40
2023-02-16T07:48:51.047Z,85.72
2023-02-16T07:51:23.392Z,88.72
2023-02-16T07:53:51.900Z,81.15
2023-02-16T07:56:21.835Z,84.93
2023-02-16T07:58:52.463Z,84.53
2023-02-16T08:01:20.912Z,76.60
2023-02-16T08:03:51.350Z,78.72
2023-02-16T08:06:20.146Z,74.57
2023-02-16T08:08:48.481Z,75.75
2023-02-16T08:11:19.185Z,73.72
2023-02-16T08:13:48.189Z,79.95
2023-02-16T08:16:18.254Z,89.65
2023-02-16T08:18:46.780Z,87.15
2023-02-16T08:21:18.919Z,77.00
2023-02-16T08:23:48.474Z,90.60
2023-02-16T08:26:18.448Z,64.78
2023-02-16T08:28:47.747Z,64.72
2023-02-16T08:31:17.009Z,67.55
2023-02-16T08:33:45.705Z,61.25
2023-02-16T08:36:23.586Z,64.75
2023-02-16T08:38:52.341Z,64.28
2023-02-16T08:41:21.848Z,63.45
2023-02-16T08:43:51.250Z,62.65
2023-02-16T08:46:19.795Z,70.72
2023-02-16T08:48:48.038Z,65.80
2023-02-16T08:51:18.707Z,73.70
2023-02-16T08:53:48.439Z,74.28
2023-02-16T08:56:16.946Z,73.63
2023-02-16T08:58:45.252Z,76.72
2023-02-16T09:01:15.490Z,78.78
2023-02-16T09:03:46.147Z,85.10
2023-02-16T09:06:16.418Z,73.50
2023-02-16T09:08:46.651Z,84.90
2023-02-16T09:11:17.824Z,86.93
2023-02-16T09:13:46.864Z,80.60
2023-02-16T09:16:16.985Z,83.00
2023-02-16T09:18:46.172Z,70.57
2023-02-16T09:21:16.283Z,78.28
2023-02-16T09:23:49.080Z,78.03
2023-02-16T09:26:20.537Z,72.80
2023-02-16T09:28:49.122Z,72.65
2023-02-16T09:31:23.824Z,67.70
2023-02-16T09:33:53.118Z,71.45
2023-02-16T09:36:21.452Z,64.82
2023-02-16T09:38:50.283Z,69.05
2023-02-16T09:41:28.749Z,62.00
2023-02-16T09:44:00.881Z,72.05
2023-02-16T09:46:32.123Z,59.70
2023-02-16T09:49:03.809Z,55.70
2023-02-16T09:51:37.501Z,60.03
2023-02-16T09:54:21.381Z,57.05
2023-02-16T09:56:57.941Z,55.20
2023-02-16T09:59:41.004Z,59.53
2023-02-16T10:02:35.694Z,59.58
2023-02-16T10:05:17.299Z,60.70
2023-02-16T10:07:57.250Z,64.13
2023-02-16T10:10:30.921Z,59.20
2023-02-16T10:13:07.659Z,57.17
2023-02-16T10:15:37.689Z,56.90
2023-02-16T10:18:15.828Z,60.87
2023-02-16T10:20:49.244Z,61.93
2023-02-16T10:23:41.191Z,63.10
2023-02-16T10:26:18.961Z,57.37
2023-02-16T10:28:50.884Z,59.28
2023-02-16T10:31:28.007Z,53.10
2023-02-16T10:34:15.474Z,62.40
2023-02-16T10:37:13.186Z,63.37
2023-02-16T10:39:47.596Z,61.50
2023-02-16T10:42:26.317Z,57.83
2023-02-16T10:45:03.878Z,53.90
2023-02-16T10:47:36.786Z,58.40
2023-02-16T10:50:05.646Z,62.90
2023-02-16T10:52:37.416Z,68.63
2023-02-16T10:55:07.068Z,64.20
2023-02-16T10:57:35.862Z,56.50
2023-02-16T11:00:11.622Z,67.97
2023-02-16T11:02:43.343Z,57.30
2023-02-16T11:05:32.294Z,60.30
2023-02-16T11:08:02.766Z,63.77
2023-02-16T11:10:42.643Z,64.23
2023-02-16T11:13:25.558Z,62.80
2023-02-16T11:15:58.034Z,63.27
2023-02-16T11:18:39.313Z,62.33
2023-02-16T11:21:09.356Z,53.87
2023-02-16T11:23:40.612Z,58.83
2023-02-16T11:26:23.995Z,59.90
2023-02-16T11:28:54.052Z,53.63
2023-02-16T11:31:30.475Z,59.20
2023-02-16T11:34:04.324Z,52.03
2023-02-16T11:36:37.405Z,53.17
2023-02-16T11:39:11.114Z,54.77
2023-02-16T11:41:39.561Z,55.77
2023-02-16T11:44:27.355Z,55.50
2023-02-16T11:46:59.099Z,58.03
2023-02-16T11:49:33.463Z,51.37
2023-02-16T11:52:02.369Z,56.17
2023-02-16T11:54:31.023Z,55.30
2023-02-16T11:57:04.926Z,50.87
2023-02-16T11:59:37.301Z,47.77
2023-02-16T12:02:45.159Z,47.87
2023-02-16T12:05:34.302Z,42.80
2023-02-16T12:08:23.368Z,46.47
2023-02-16T12:11:07.834Z,49.07
2023-02-16T12:13:44.061Z,48.60
2023-02-16T12:16:25.947Z,46.00
2023-02-16T12:19:09.792Z,46.40
2023-02-16T12:21:45.465Z,53.20
2023-02-16T12:24:33.670Z,42.00
2023-02-16T12:27:04.290Z,45.20
2023-02-16T12:29:47.798Z,46.13
2023-02-16T12:32:35.218Z,44.97
2023-02-16T12:35:34.752Z,47.57
2023-02-16T12:38:14.616Z,45.30
2023-02-16T12:40:54.502Z,47.10
2023-02-16T12:43:34.120Z,46.37
2023-02-16T12:46:07.324Z,43.07
2023-02-16T12:48:43.368Z,44.27
2023-02-16T12:51:17.928Z,46.97
2023-02-16T12:53:57.627Z,44.43
2023-02-16T12:56:29.759Z,42.50
2023-02-16T12:59:15.591Z,45.13
2023-02-16T13:01:46.692Z,44.27
2023-02-16T13:04:22.824Z,47.90
2023-02-16T13:06:59.137Z,40.80
2023-02-16T13:09:38.586Z,40.40
2023-02-16T13:12:17.583Z,44.20
2023-02-16T13:14:51.476Z,44.30
2023-02-16T13:17:27.397Z,45.73
2023-02-16T13:19:55.739Z,45.13
2023-02-16T13:22:53.932Z,41.63
2023-02-16T13:25:36.028Z,39.20
2023-02-16T13:28:23.612Z,43.70
2023-02-16T13:31:09.135Z,41.97
2023-02-16T13:33:56.572Z,39.77
2023-02-16T13:36:37.163Z,39.27
2023-02-16T13:39:31.678Z,43.60
2023-02-16T13:42:31.404Z,47.20
2023-02-16T13:45:02.448Z,40.07
2023-02-16T13:47:34.450Z,42.57
2023-02-16T13:50:06.967Z,43.30
2023-02-16T13:52:38.398Z,41.73
2023-02-16T13:55:10.035Z,40.87
2023-02-16T13:58:04.561Z,47.07
2023-02-16T14:00:37.145Z,45.70
2023-02-16T14:03:12.433Z,43.80
2023-02-16T14:05:43.398Z,38.90
2023-02-16T14:08:16.153Z,40.40
2023-02-16T14:11:12.171Z,44.90
2023-02-16T14:13:52.224Z,45.50
2023-02-16T14:16:34.679Z,42.83
2023-02-16T14:19:19.809Z,40.60
2023-02-16T14:21:50.273Z,36.30
2023-02-16T14:24:32.788Z,41.00
2023-02-16T14:27:02.941Z,38.37
2023-02-16T14:29:37.522Z,35.93
2023-02-16T14:32:19.294Z,39.53
2023-02-16T14:34:54.033Z,37.50
2023-02-16T14:37:30.274Z,37.50
2023-02-16T14:40:12.865Z,31.63
2023-02-16T14:42:50.075Z,33.73
2023-02-16T14:45:46.030Z,39.00
2023-02-16T14:48:28.594Z,35.00
2023-02-16T14:51:24.006Z,29.73
2023-02-16T14:54:22.067Z,31.60
2023-02-16T14:56:53.522Z,33.20
2023-02-16T14:59:33.295Z,32.50
2023-02-16T15:02:26.998Z,33.90
2023-02-16T15:04:55.292Z,68.00
2023-02-16T15:07:24.815Z,42.60
2023-02-16T15:09:58.094Z,37.27
2023-02-16T15:12:40.743Z,37.13
2023-02-16T15:15:18.380Z,34.47
2023-02-16T15:17:49.444Z,30.93
2023-02-16T15:20:28.670Z,34.60
2023-02-16T15:22:58.633Z,31.57
2023-02-16T15:25:29.510Z,29.03
2023-02-16T15:28:04.432Z,28.80
2023-02-16T15:30:34.077Z,47.13
2023-02-16T15:33:06.762Z,43.80
2023-02-16T15:35:38.950Z,43.03
2023-02-16T15:38:19.881Z,51.90
2023-02-16T15:40:49.032Z,41.90
2023-02-16T15:43:30.861Z,49.67
2023-02-16T15:46:01.135Z,44.23
2023-02-16T15:48:32.516Z,44.33
2023-02-16T15:51:12.216Z,52.27
2023-02-16T15:53:48.899Z,52.50
2023-02-16T15:56:28.301Z,54.77
2023-02-16T15:58:57.696Z,59.35
2023-02-16T16:01:33.237Z,49.20
2023-02-16T16:04:07.120Z,53.30
2023-02-16T16:06:38.396Z,54.00
2023-02-16T16:09:08.665Z,56.03
2023-02-16T16:11:38.331Z,55.85
2023-02-16T16:14:08.424Z,67.55
2023-02-16T16:16:36.947Z,63.10
2023-02-16T16:19:16.462Z,55.20
2023-02-16T16:21:51.399Z,76.85
2023-02-16T16:24:34.058Z,66.43
2023-02-16T16:27:05.768Z,67.85
2023-02-16T16:29:37.724Z,75.97
2023-02-16T16:32:07.592Z,78.38
2023-02-16T16:34:39.448Z,75.10
2023-02-16T16:37:19.582Z,70.90
2023-02-16T16:40:01.147Z,68.25
2023-02-16T16:42:29.706Z,74.28
2023-02-16T16:45:07.698Z,69.90
2023-02-16T16:47:40.089Z,76.55
2023-02-16T16:50:30.979Z,67.03
2023-02-16T16:52:59.291Z,75.00
2023-02-16T16:55:31.529Z,76.00
2023-02-16T16:58:02.093Z,78.05
2023-02-16T17:00:34.478Z,72.65
2023-02-16T17:03:03.256Z,71.78
2023-02-16T17:05:33.218Z,77.45
2023-02-16T17:08:01.750Z,71.25
2023-02-16T17:10:30.189Z,70.90
2023-02-16T17:13:00.769Z,83.85
2023-02-16T17:15:33.356Z,85.60
2023-02-16T17:18:02.662Z,74.78
2023-02-16T17:20:32.509Z,76.65
2023-02-16T17:23:04.826Z,64.10
2023-02-16T17:25:35.661Z,71.72
2023-02-16T17:28:04.270Z,66.22
2023-02-16T17:30:33.237Z,66.78
2023-02-16T17:33:01.606Z,63.33
2023-02-16T17:35:33.110Z,58.22
2023-02-16T17:38:08.331Z,64.40
2023-02-16T17:40:36.628Z,55.65
2023-02-16T17:43:12.261Z,65.38
2023-02-16T17:45:40.582Z,70.10
2023-02-16T17:48:09.193Z,78.35
2023-02-16T17:50:39.156Z,66.65
2023-02-16T17:53:12.919Z,98.30
2023-02-16T17:55:41.196Z,90.43
2023-02-16T17:58:09.635Z,89.85
2023-02-16T18:00:38.180Z,76.18
2023-02-16T18:03:07.070Z,96.75
2023-02-16T18:05:35.992Z,102.03
2023-02-16T18:08:06.776Z,85.38
2023-02-16T18:10:37.432Z,91.97
2023-02-16T18:13:06.439Z,84.93
2023-02-16T18:15:35.253Z,86.82
2023-02-16T18:18:03.895Z,79.10
2023-02-16T18:20:32.291Z,83.72
2023-02-16T18:23:00.640Z,85.90
2023-02-16T18:25:30.312Z,86.90
2023-02-16T18:27:58.657Z,84.97
2023-02-16T18:30:26.952Z,94.15
2023-02-16T18:32:55.085Z,86.97
2023-02-16T18:35:23.349Z,76.75
2023-02-16T18:37:51.534Z,95.22
2023-02-16T18:40:22.263Z,94.13
2023-02-16T18:42:51.965Z,83.18
2023-02-16T18:45:20.345Z,75.78
2023-02-16T18:47:48.658Z,89.22
2023-02-16T18:50:17.074Z,80.07
2023-02-16T18:52:46.280Z,70.75
2023-02-16T18:55:15.287Z,64.68
2023-02-16T18:57:44.009Z,79.20
2023-02-16T19:00:15.687Z,85.82
2023-02-16T19:02:44.333Z,79.95
2023-02-16T19:05:13.020Z,79.03
2023-02-16T19:07:41.226Z,78.45
2023-02-16T19:10:10.485Z,82.07
2023-02-16T19:12:38.881Z,90.05
2023-02-16T19:15:07.826Z,92.15
2023-02-16T19:17:38.872Z,86.53
2023-02-16T19:20:09.837Z,77.38
2023-02-16T19:22:38.101Z,56.13
2023-02-16T19:25:07.500Z,59.40
2023-02-16T19:27:35.755Z,58.33
2023-02-16T19:30:04.456Z,50.33
2023-02-16T19:32:32.987Z,57.47
2023-02-16T19:35:03.707Z,50.00
2023-02-16T19:37:32.020Z,58.97
2023-02-16T19:40:00.358Z,57.15
2023-02-16T19:42:28.527Z,52.47
2023-02-16T19:44:56.941Z,53.30
2023-02-16T19:47:25.171Z,63.28
2023-02-16T19:49:53.413Z,57.28
2023-02-16T19:52:22.990Z,50.90
2023-02-16T19:54:51.235Z,49.22
2023-02-16T19:57:19.570Z,66.15
2023-02-16T19:59:47.814Z,68.03
2023-02-16T20:02:16.265Z,71.95
2023-02-16T20:04:45.271Z,73.50
2023-02-16T20:07:13.712Z,75.97
2023-02-16T20:09:43.739Z,67.82
2023-02-16T20:12:13.817Z,67.18
2023-02-16T20:14:42.237Z,64.53
2023-02-16T20:17:10.426Z,66.63
2023-02-16T20:19:38.647Z,61.80
2023-02-16T20:22:06.901Z,64.90
2023-02-16T20:24:35.170Z,59.17
2023-02-16T20:27:05.219Z,59.40
2023-02-16T20:29:33.743Z,54.70
2023-02-16T20:32:02.153Z,62.85
2023-02-16T20:34:30.449Z,58.38
2023-02-16T20:36:59.280Z,61.40
2023-02-16T20:39:27.768Z,62.03
2023-02-16T20:41:55.998Z,57.45
2023-02-16T20:44:25.603Z,68.22
2023-02-16T20:46:54.012Z,60.28
2023-02-16T20:49:22.384Z,65.85
2023-02-16T20:51:50.528Z,90.82
2023-02-16T20:54:18.778Z,92.30
2023-02-16T20:56:47.442Z,86.22
2023-02-16T20:59:15.718Z,92.47
2023-02-16T21:01:47.497Z,111.45
2023-02-16T21:04:17.686Z,102.32
2023-02-16T21:06:46.546Z,101.85
2023-02-16T21:09:15.587Z,93.97
2023-02-16T21:11:44.479Z,109.70
2023-02-16T21:14:13.386Z,97.03
2023-02-16T21:16:42.183Z,99.55
2023-02-16T21:19:22.572Z,92.50
2023-02-16T21:21:52.378Z,67.80
2023-02-16T21:24:20.752Z,63.75
2023-02-16T21:26:49.220Z,83.68
2023-02-16T21:29:17.747Z,73.75
2023-02-16T21:31:46.199Z,96.18
2023-02-16T21:34:15.969Z,101.22
2023-02-16T21:36:44.455Z,90.03
2023-02-16T21:39:13.431Z,87.35
2023-02-16T21:41:40.673Z,98.63
2023-02-16T21:44:10.558Z,91.50
2023-02-16T21:46:40.924Z,77.47
2023-02-16T21:49:12.105Z,54.13
2023-02-16T21:51:43.289Z,56.65
2023-02-16T21:54:14.474Z,61.50
2023-02-16T21:56:43.373Z,54.42
2023-02-16T21:59:13.842Z,64.05
2023-02-16T22:01:44.770Z,61.70
2023-02-16T22:04:14.691Z,64.15
2023-02-16T22:06:45.805Z,64.93
2023-02-16T22:09:17.446Z,63.22
2023-02-16T22:11:46.177Z,68.90
2023-02-16T22:14:14.672Z,76.75
2023-02-16T22:16:45.372Z,61.90
2023-02-16T22:19:15.354Z,60.38
2023-02-16T22:21:46.267Z,66.18
2023-02-16T22:24:17.009Z,57.60
2023-02-16T22:26:45.972Z,66.03
2023-02-16T22:29:14.527Z,54.38
2023-02-16T22:31:45.430Z,63.42
2023-02-16T22:34:15.042Z,64.03
2023-02-16T22:36:45.887Z,69.60
2023-02-16T22:39:15.005Z,57.92
2023-02-16T22:41:43.372Z,67.25
2023-02-16T22:44:12.686Z,66.18
2023-02-16T22:46:40.902Z,67.53
2023-02-16T22:49:11.198Z,62.55
2023-02-16T22:51:39.641Z,71.60
2023-02-16T22:54:09.444Z,76.55
2023-02-16T22:56:37.628Z,57.15
2023-02-16T22:59:05.930Z,64.68
2023-02-16T23:01:34.454Z,78.25
2023-02-16T23:04:02.931Z,66.13
2023-02-16T23:06:33.010Z,73.57
2023-02-16T23:09:03.389Z,99.80
2023-02-16T23:11:33.899Z,105.22
2023-02-16T23:14:02.475Z,108.80
2023-02-16T23:16:30.801Z,122.55
2023-02-16T23:19:00.644Z,130.68
2023-02-16T23:21:30.737Z,134.25
2023-02-16T23:24:00.093Z,135.77
2023-02-16T23:26:31.328Z,148.88
2023-02-16T23:29:03.141Z,146.98
2023-02-16T23:31:35.965Z,133.48
2023-02-16T23:34:04.818Z,132.98
2023-02-16T23:36:33.793Z,154.02
2023-02-16T23:39:02.651Z,146.52
2023-02-16T23:41:31.038Z,147.45
2023-02-16T23:44:01.281Z,148.82
2023-02-16T23:46:30.025Z,128.85
2023-02-16T23:48:58.345Z,120.85
2023-02-16T23:51:26.872Z,110.70
2023-02-16T23:53:55.428Z,97.05
2023-02-16T23:56:25.320Z,99.07
2023-02-16T23:58:57.099Z,87.10
